createdAt,value
2018-03-17T00:00:02.190Z,2.3
2018-03-17T00:15:02.551Z,2.7
2018-03-17T00:30:02.859Z,2.4
2018-03-17T00:45:03.121Z,2.2
2018-03-17T01:00:02.415Z,2.2
2018-03-17T01:15:02.658Z,1.7
2018-03-17T01:30:03.029Z,1.9
2018-03-17T01:45:02.338Z,1.9
2018-03-17T02:00:02.593Z,1.3
2018-03-17T02:15:02.829Z,1.6
2018-03-17T02:30:03.192Z,1.6
2018-03-17T02:45:02.460Z,1.6
2018-03-17T03:00:02.694Z,1.6
2018-03-17T03:15:02.947Z,1.4
2018-03-17T03:30:02.283Z,1.4
2018-03-17T03:45:02.505Z,1.3
2018-03-17T04:00:02.770Z,1.4
2018-03-17T04:15:03.011Z,1.6
2018-03-17T04:30:02.330Z,1.3
2018-03-17T04:45:02.580Z,1.2
2018-03-17T05:00:02.927Z,1.3
2018-03-17T05:15:03.213Z,1.3
2018-03-17T05:30:02.820Z,1.2
2018-03-17T05:45:03.089Z,1.4
2018-03-17T06:00:02.356Z,1.4
2018-03-17T06:15:02.616Z,1.7
2018-03-17T06:30:03.108Z,1.9
2018-03-17T06:45:02.461Z,1.9
2018-03-17T07:00:03.014Z,2.1
2018-03-17T07:15:02.628Z,2.3
2018-03-17T07:30:03.032Z,2.5
2018-03-17T07:45:02.317Z,3.2
2018-03-17T08:00:02.576Z,3.2
2018-03-17T08:15:02.922Z,3.7
2018-03-17T08:30:02.293Z,4.8
2018-03-17T08:45:02.561Z,5.4
2018-03-17T09:00:03.080Z,5.9
2018-03-17T09:15:02.327Z,6.1
2018-03-17T09:30:02.689Z,5.8
2018-03-17T09:45:02.907Z,5.3
2018-03-17T10:00:03.208Z,5.3
2018-03-17T10:15:02.690Z,5.4
2018-03-17T10:30:03.084Z,5.5
2018-03-17T10:45:02.335Z,5.7
2018-03-17T11:00:02.676Z,5.4
2018-03-17T11:15:03.044Z,5.4
2018-03-17T11:30:02.605Z,5.3
2018-03-17T11:45:02.893Z,5.6
2018-03-17T12:00:03.147Z,5.6
2018-03-17T12:15:02.461Z,6
2018-03-17T12:30:02.781Z,5.9
2018-03-17T12:45:03.021Z,6.1
2018-03-17T13:00:02.296Z,5.6
2018-03-17T13:15:02.575Z,5.1
2018-03-17T13:30:03.033Z,4.6
2018-03-17T13:45:02.309Z,4.4
2018-03-17T14:00:02.615Z,4.6
2018-03-17T14:15:02.887Z,4.4
2018-03-17T14:30:02.416Z,4.5
2018-03-17T14:45:02.740Z,4.3
2018-03-17T15:00:03.132Z,4.2
2018-03-17T15:15:02.402Z,4.1
2018-03-17T15:30:02.699Z,4.1
2018-03-17T15:45:02.952Z,4.1
2018-03-17T16:00:04.044Z,4.1
2018-03-17T16:15:02.357Z,3.9
2018-03-17T16:30:02.695Z,3.7
2018-03-17T16:45:02.981Z,3.4
2018-03-17T17:00:02.233Z,3.1
2018-03-17T17:15:02.529Z,2.8
2018-03-17T17:30:02.850Z,2.6
2018-03-17T17:45:03.177Z,2.3
2018-03-17T18:00:02.416Z,2.1
2018-03-17T18:15:02.693Z,2.1
2018-03-17T18:30:03.013Z,1.9
2018-03-17T18:45:02.270Z,1.6
2018-03-17T19:00:02.525Z,1.4
2018-03-17T19:15:02.790Z,1.3
2018-03-17T19:30:03.117Z,1.1
2018-03-17T19:45:02.383Z,0.9
2018-03-17T20:00:02.632Z,0.7
2018-03-17T20:15:02.872Z,0.6
2018-03-17T20:30:02.205Z,0.4
2018-03-17T20:45:02.477Z,0.5
2018-03-17T21:00:02.705Z,0.4
2018-03-17T21:15:02.932Z,0.3
2018-03-17T21:30:02.288Z,0.2
2018-03-17T21:45:02.503Z,0.1
2018-03-17T22:00:02.786Z,0
2018-03-17T22:15:03.025Z,-0.1
2018-03-17T22:30:02.421Z,-0.2
2018-03-17T22:45:02.689Z,-0.2
2018-03-17T23:00:02.895Z,-0.4
2018-03-17T23:15:02.291Z,-0.4
2018-03-17T23:30:02.849Z,-0.5
2018-03-17T23:45:03.101Z,-0.6
